sensor_id;sensor_type;location;lat;lon;timestamp;pressure;altitude;pressure_sealevel;temperature;humidity
8573;BME280;4324;42.012;24.872;2023-03-08T00:01:35;98167.19;;;9.79;66.49
8573;BME280;4324;42.012;24.872;2023-03-08T00:04:02;98166.72;;;9.76;66.72
8573;BME280;4324;42.012;24.872;2023-03-08T00:06:29;98169.06;;;9.70;66.93
8573;BME280;4324;42.012;24.872;2023-03-08T00:08:56;98173.19;;;9.73;67.04
8573;BME280;4324;42.012;24.872;2023-03-08T00:11:26;98159.22;;;9.64;67.07
8573;BME280;4324;42.012;24.872;2023-03-08T00:13:53;98171.16;;;9.75;67.00
8573;BME280;4324;42.012;24.872;2023-03-08T00:16:20;98172.97;;;9.75;66.97
8573;BME280;4324;42.012;24.872;2023-03-08T00:18:48;98173.19;;;9.73;66.99
8573;BME280;4324;42.012;24.872;2023-03-08T00:21:17;98166.69;;;9.61;67.14
8573;BME280;4324;42.012;24.872;2023-03-08T00:23:44;98172.81;;;9.61;67.07
8573;BME280;4324;42.012;24.872;2023-03-08T00:26:12;98162.59;;;9.58;67.54
8573;BME280;4324;42.012;24.872;2023-03-08T00:28:40;98177.28;;;9.61;67.50
8573;BME280;4324;42.012;24.872;2023-03-08T00:31:10;98170.06;;;9.55;67.50
8573;BME280;4324;42.012;24.872;2023-03-08T00:33:38;98164.66;;;9.48;67.67
8573;BME280;4324;42.012;24.872;2023-03-08T00:36:07;98163.22;;;9.45;68.25
8573;BME280;4324;42.012;24.872;2023-03-08T00:38:35;98161.53;;;9.44;68.29
8573;BME280;4324;42.012;24.872;2023-03-08T00:41:03;98164.66;;;9.48;68.17
8573;BME280;4324;42.012;24.872;2023-03-08T00:43:30;98148.69;;;9.41;68.15
8573;BME280;4324;42.012;24.872;2023-03-08T00:45:58;98140.94;;;9.40;68.25
8573;BME280;4324;42.012;24.872;2023-03-08T00:48:25;98150.34;;;9.42;68.40
8573;BME280;4324;42.012;24.872;2023-03-08T00:50:52;98145.97;;;9.35;68.43
8573;BME280;4324;42.012;24.872;2023-03-08T00:53:19;98124.59;;;9.21;68.99
8573;BME280;4324;42.012;24.872;2023-03-08T00:55:48;98148.75;;;9.33;69.23
8573;BME280;4324;42.012;24.872;2023-03-08T00:58:15;98149.88;;;9.39;69.16
8573;BME280;4324;42.012;24.872;2023-03-08T01:00:42;98158.78;;;9.38;68.97
8573;BME280;4324;42.012;24.872;2023-03-08T01:03:10;98158.31;;;9.34;68.81
8573;BME280;4324;42.012;24.872;2023-03-08T01:05:40;98175.44;;;9.24;68.84
8573;BME280;4324;42.012;24.872;2023-03-08T01:08:08;98160.59;;;9.00;69.09
8573;BME280;4324;42.012;24.872;2023-03-08T01:10:35;98173.34;;;8.96;69.21
8573;BME280;4324;42.012;24.872;2023-03-08T01:13:03;98172.38;;;8.89;69.49
8573;BME280;4324;42.012;24.872;2023-03-08T01:15:34;98147.75;;;8.73;69.60
8573;BME280;4324;42.012;24.872;2023-03-08T01:18:01;98128.84;;;8.62;69.79
8573;BME280;4324;42.012;24.872;2023-03-08T01:20:30;98092.06;;;8.37;69.71
8573;BME280;4324;42.012;24.872;2023-03-08T01:22:56;98156.63;;;8.81;69.99
8573;BME280;4324;42.012;24.872;2023-03-08T01:25:24;98157.09;;;8.84;69.83
8573;BME280;4324;42.012;24.872;2023-03-08T01:27:51;98145.41;;;8.79;69.84
8573;BME280;4324;42.012;24.872;2023-03-08T01:30:17;98135.84;;;8.78;69.68
8573;BME280;4324;42.012;24.872;2023-03-08T01:32:44;98167.94;;;8.89;69.70
8573;BME280;4324;42.012;24.872;2023-03-08T01:35:11;98162.84;;;8.88;69.74
8573;BME280;4324;42.012;24.872;2023-03-08T01:37:40;98150.38;;;8.73;69.65
8573;BME280;4324;42.012;24.872;2023-03-08T01:40:08;98165.19;;;8.83;69.79
8573;BME280;4324;42.012;24.872;2023-03-08T01:42:37;98161.53;;;8.84;69.69
8573;BME280;4324;42.012;24.872;2023-03-08T01:45:51;98143.81;;;8.69;69.86
8573;BME280;4324;42.012;24.872;2023-03-08T01:47:53;98162.06;;;8.79;69.83
8573;BME280;4324;42.012;24.872;2023-03-08T01:50:19;98165.53;;;8.80;69.94
8573;BME280;4324;42.012;24.872;2023-03-08T01:52:51;98175.75;;;8.83;69.54
8573;BME280;4324;42.012;24.872;2023-03-08T01:55:19;98180.03;;;8.84;69.75
8573;BME280;4324;42.012;24.872;2023-03-08T01:57:48;98175.44;;;8.78;69.73
8573;BME280;4324;42.012;24.872;2023-03-08T02:02:48;98173.44;;;8.80;69.73
8573;BME280;4324;42.012;24.872;2023-03-08T02:05:17;98141.25;;;8.61;69.68
8573;BME280;4324;42.012;24.872;2023-03-08T02:07:44;98150.78;;;8.62;69.92
8573;BME280;4324;42.012;24.872;2023-03-08T02:10:13;98178.25;;;8.76;69.91
8573;BME280;4324;42.012;24.872;2023-03-08T02:12:41;98173.13;;;8.75;69.52
8573;BME280;4324;42.012;24.872;2023-03-08T02:15:11;98165.88;;;8.77;69.80
8573;BME280;4324;42.012;24.872;2023-03-08T02:17:39;98162.47;;;8.68;69.89
8573;BME280;4324;42.012;24.872;2023-03-08T02:20:10;98163.63;;;8.65;69.89
8573;BME280;4324;42.012;24.872;2023-03-08T02:22:41;98170.88;;;8.71;69.81
8573;BME280;4324;42.012;24.872;2023-03-08T02:25:12;98179.75;;;8.70;69.80
8573;BME280;4324;42.012;24.872;2023-03-08T02:27:40;98164.75;;;8.71;69.92
8573;BME280;4324;42.012;24.872;2023-03-08T02:30:09;98158.38;;;8.65;69.86
8573;BME280;4324;42.012;24.872;2023-03-08T02:32:36;98164.47;;;8.66;69.82
8573;BME280;4324;42.012;24.872;2023-03-08T02:35:03;98169.06;;;8.72;69.75
8573;BME280;4324;42.012;24.872;2023-03-08T02:37:30;98141.78;;;8.48;69.78
8573;BME280;4324;42.012;24.872;2023-03-08T02:39:59;98140.03;;;8.41;69.68
8573;BME280;4324;42.012;24.872;2023-03-08T02:42:26;98189.69;;;8.68;69.93
8573;BME280;4324;42.012;24.872;2023-03-08T02:44:53;98172.09;;;8.61;69.90
8573;BME280;4324;42.012;24.872;2023-03-08T02:47:20;98179.94;;;8.69;69.86
8573;BME280;4324;42.012;24.872;2023-03-08T02:49:47;98184.88;;;8.72;69.85
8573;BME280;4324;42.012;24.872;2023-03-08T02:52:13;98180.56;;;8.71;69.67
8573;BME280;4324;42.012;24.872;2023-03-08T02:54:40;98156.25;;;8.61;69.77
8573;BME280;4324;42.012;24.872;2023-03-08T02:57:09;98179.13;;;8.68;69.79
8573;BME280;4324;42.012;24.872;2023-03-08T02:59:35;98179.47;;;8.65;70.06
8573;BME280;4324;42.012;24.872;2023-03-08T03:02:02;98163.03;;;8.55;69.84
8573;BME280;4324;42.012;24.872;2023-03-08T03:04:30;98181.44;;;8.63;69.86
8573;BME280;4324;42.012;24.872;2023-03-08T03:06:57;98092.53;;;8.10;69.63
8573;BME280;4324;42.012;24.872;2023-03-08T03:09:26;98172.09;;;8.61;69.85
8573;BME280;4324;42.012;24.872;2023-03-08T03:11:52;98179.53;;;8.57;69.66
8573;BME280;4324;42.012;24.872;2023-03-08T03:14:21;98165.72;;;8.47;69.93
8573;BME280;4324;42.012;24.872;2023-03-08T03:16:47;98187.78;;;8.54;69.68
8573;BME280;4324;42.012;24.872;2023-03-08T03:19:14;98188.78;;;8.53;69.80
8573;BME280;4324;42.012;24.872;2023-03-08T03:21:41;98185.34;;;8.44;69.56
8573;BME280;4324;42.012;24.872;2023-03-08T03:24:08;98201.97;;;8.53;69.78
8573;BME280;4324;42.012;24.872;2023-03-08T03:26:35;98207.88;;;8.55;69.50
8573;BME280;4324;42.012;24.872;2023-03-08T03:29:02;98202.13;;;8.52;69.41
8573;BME280;4324;42.012;24.872;2023-03-08T03:31:31;98200.00;;;8.47;69.47
8573;BME280;4324;42.012;24.872;2023-03-08T03:33:58;98203.94;;;8.51;69.39
8573;BME280;4324;42.012;24.872;2023-03-08T03:36:25;98197.84;;;8.51;69.42
8573;BME280;4324;42.012;24.872;2023-03-08T03:38:53;98200.66;;;8.49;69.44
8573;BME280;4324;42.012;24.872;2023-03-08T03:41:22;98192.72;;;8.49;69.20
8573;BME280;4324;42.012;24.872;2023-03-08T03:43:49;98173.69;;;8.39;69.28
8573;BME280;4324;42.012;24.872;2023-03-08T03:46:18;98188.81;;;8.45;69.37
8573;BME280;4324;42.012;24.872;2023-03-08T03:48:46;98155.75;;;8.18;69.25
8573;BME280;4324;42.012;24.872;2023-03-08T03:51:15;98203.19;;;8.42;69.15
8573;BME280;4324;42.012;24.872;2023-03-08T03:53:44;98205.81;;;8.42;69.25
8573;BME280;4324;42.012;24.872;2023-03-08T03:56:13;98211.72;;;8.44;69.27
8573;BME280;4324;42.012;24.872;2023-03-08T03:58:40;98216.38;;;8.42;69.29
8573;BME280;4324;42.012;24.872;2023-03-08T04:01:08;98225.44;;;8.40;69.16
8573;BME280;4324;42.012;24.872;2023-03-08T04:03:35;98227.41;;;8.30;69.44
8573;BME280;4324;42.012;24.872;2023-03-08T04:06:09;98217.91;;;8.20;69.63
8573;BME280;4324;42.012;24.872;2023-03-08T04:08:37;98226.66;;;8.13;69.77
8573;BME280;4324;42.012;24.872;2023-03-08T04:11:07;98222.53;;;8.10;69.53
8573;BME280;4324;42.012;24.872;2023-03-08T04:13:37;98209.88;;;8.06;69.88
8573;BME280;4324;42.012;24.872;2023-03-08T04:16:09;98234.72;;;8.19;69.74
8573;BME280;4324;42.012;24.872;2023-03-08T04:18:36;98252.16;;;8.29;69.61
8573;BME280;4324;42.012;24.872;2023-03-08T04:21:03;98217.94;;;8.12;69.47
8573;BME280;4324;42.012;24.872;2023-03-08T04:23:31;98225.31;;;8.17;69.35
8573;BME280;4324;42.012;24.872;2023-03-08T04:25:59;98246.06;;;8.28;69.30
8573;BME280;4324;42.012;24.872;2023-03-08T04:28:26;98222.22;;;8.13;69.17
8573;BME280;4324;42.012;24.872;2023-03-08T04:30:53;98239.34;;;8.17;69.30
8573;BME280;4324;42.012;24.872;2023-03-08T04:33:22;98244.28;;;8.20;69.26
8573;BME280;4324;42.012;24.872;2023-03-08T04:35:49;98237.06;;;8.06;69.10
8573;BME280;4324;42.012;24.872;2023-03-08T04:38:17;98259.28;;;8.20;69.43
8573;BME280;4324;42.012;24.872;2023-03-08T04:40:50;98254.66;;;8.14;69.63
8573;BME280;4324;42.012;24.872;2023-03-08T04:43:34;98264.69;;;8.18;69.58
8573;BME280;4324;42.012;24.872;2023-03-08T04:46:02;98257.13;;;8.15;69.52
8573;BME280;4324;42.012;24.872;2023-03-08T04:48:30;98256.63;;;8.12;69.83
8573;BME280;4324;42.012;24.872;2023-03-08T04:50:58;98252.53;;;8.09;69.62
8573;BME280;4324;42.012;24.872;2023-03-08T04:53:26;98252.22;;;8.12;69.70
8573;BME280;4324;42.012;24.872;2023-03-08T04:55:55;98252.84;;;8.14;69.61
8573;BME280;4324;42.012;24.872;2023-03-08T04:58:23;98229.78;;;8.08;69.81
8573;BME280;4324;42.012;24.872;2023-03-08T05:00:50;98244.59;;;8.17;69.57
8573;BME280;4324;42.012;24.872;2023-03-08T05:03:17;98254.66;;;8.14;69.80
8573;BME280;4324;42.012;24.872;2023-03-08T05:05:45;98258.09;;;8.22;69.59
8573;BME280;4324;42.012;24.872;2023-03-08T05:08:12;98261.41;;;8.24;69.18
8573;BME280;4324;42.012;24.872;2023-03-08T05:10:46;98266.66;;;8.24;69.26
8573;BME280;4324;42.012;24.872;2023-03-08T05:13:14;98272.09;;;8.31;69.50
8573;BME280;4324;42.012;24.872;2023-03-08T05:15:41;98268.47;;;8.32;69.47
8573;BME280;4324;42.012;24.872;2023-03-08T05:18:08;98273.09;;;8.38;69.12
8573;BME280;4324;42.012;24.872;2023-03-08T05:20:34;98274.56;;;8.41;69.07
8573;BME280;4324;42.012;24.872;2023-03-08T05:23:01;98276.84;;;8.44;68.99
8573;BME280;4324;42.012;24.872;2023-03-08T05:25:28;98275.03;;;8.44;68.58
8573;BME280;4324;42.012;24.872;2023-03-08T05:27:56;98265.31;;;8.45;68.72
8573;BME280;4324;42.012;24.872;2023-03-08T05:30:24;98268.28;;;8.50;68.62
8573;BME280;4324;42.012;24.872;2023-03-08T05:32:51;98268.56;;;8.55;68.58
8573;BME280;4324;42.012;24.872;2023-03-08T05:35:18;98263.78;;;8.59;68.46
8573;BME280;4324;42.012;24.872;2023-03-08T05:37:45;98264.25;;;8.62;68.24
8573;BME280;4324;42.012;24.872;2023-03-08T05:40:12;98263.06;;;8.73;68.61
8573;BME280;4324;42.012;24.872;2023-03-08T05:42:39;98263.53;;;8.77;68.18
8573;BME280;4324;42.012;24.872;2023-03-08T05:45:06;98272.75;;;8.81;67.98
8573;BME280;4324;42.012;24.872;2023-03-08T05:47:35;98265.78;;;8.88;67.75
8573;BME280;4324;42.012;24.872;2023-03-08T05:50:02;98239.09;;;8.83;67.52
8573;BME280;4324;42.012;24.872;2023-03-08T05:52:29;98235.31;;;8.77;67.25
8573;BME280;4324;42.012;24.872;2023-03-08T05:54:56;98267.03;;;9.00;67.07
8573;BME280;4324;42.012;24.872;2023-03-08T05:57:23;98259.13;;;9.00;66.91
8573;BME280;4324;42.012;24.872;2023-03-08T05:59:50;98253.84;;;9.00;66.80
8573;BME280;4324;42.012;24.872;2023-03-08T06:02:17;98264.31;;;9.16;66.37
8573;BME280;4324;42.012;24.872;2023-03-08T06:04:45;98274.97;;;9.23;66.55
8573;BME280;4324;42.012;24.872;2023-03-08T06:07:12;98291.97;;;9.29;66.43
8573;BME280;4324;42.012;24.872;2023-03-08T06:09:39;98271.22;;;9.17;66.37
8573;BME280;4324;42.012;24.872;2023-03-08T06:12:06;98291.56;;;9.40;66.30
8573;BME280;4324;42.012;24.872;2023-03-08T06:14:33;98296.78;;;9.48;66.29
8573;BME280;4324;42.012;24.872;2023-03-08T06:17:00;98286.09;;;9.41;66.06
8573;BME280;4324;42.012;24.872;2023-03-08T06:19:27;98306.66;;;9.54;66.14
8573;BME280;4324;42.012;24.872;2023-03-08T06:21:55;98298.03;;;9.60;66.30
8573;BME280;4324;42.012;24.872;2023-03-08T06:24:22;98309.34;;;9.69;66.25
8573;BME280;4324;42.012;24.872;2023-03-08T06:26:49;98307.81;;;9.75;66.37
8573;BME280;4324;42.012;24.872;2023-03-08T06:29:17;98330.13;;;9.95;66.40
8573;BME280;4324;42.012;24.872;2023-03-08T06:31:44;98326.41;;;10.04;66.68
8573;BME280;4324;42.012;24.872;2023-03-08T06:34:12;98324.69;;;10.11;66.23
8573;BME280;4324;42.012;24.872;2023-03-08T06:36:39;98332.38;;;10.21;66.04
8573;BME280;4324;42.012;24.872;2023-03-08T06:39:07;98339.25;;;10.30;66.00
8573;BME280;4324;42.012;24.872;2023-03-08T06:41:35;98344.38;;;10.32;66.28
8573;BME280;4324;42.012;24.872;2023-03-08T06:44:02;98355.31;;;10.29;66.50
8573;BME280;4324;42.012;24.872;2023-03-08T06:46:28;98356.66;;;10.25;66.71
8573;BME280;4324;42.012;24.872;2023-03-08T06:48:55;98302.41;;;9.91;67.28
8573;BME280;4324;42.012;24.872;2023-03-08T06:51:22;98357.00;;;10.22;67.34
8573;BME280;4324;42.012;24.872;2023-03-08T06:53:49;98342.50;;;10.17;67.35
8573;BME280;4324;42.012;24.872;2023-03-08T06:56:19;98330.97;;;10.10;67.52
8573;BME280;4324;42.012;24.872;2023-03-08T06:58:56;98335.84;;;10.22;67.46
8573;BME280;4324;42.012;24.872;2023-03-08T07:01:26;98299.78;;;10.06;67.58
8573;BME280;4324;42.012;24.872;2023-03-08T07:03:54;98351.69;;;10.45;67.48
8573;BME280;4324;42.012;24.872;2023-03-08T07:06:20;98358.25;;;10.49;67.31
8573;BME280;4324;42.012;24.872;2023-03-08T07:08:48;98357.53;;;10.55;67.23
8573;BME280;4324;42.012;24.872;2023-03-08T07:11:15;98369.69;;;10.64;67.28
8573;BME280;4324;42.012;24.872;2023-03-08T07:13:43;98370.78;;;10.70;67.32
8573;BME280;4324;42.012;24.872;2023-03-08T07:16:12;98363.84;;;10.69;67.40
8573;BME280;4324;42.012;24.872;2023-03-08T07:18:39;98379.09;;;10.81;67.33
8573;BME280;4324;42.012;24.872;2023-03-08T07:21:07;98398.75;;;10.87;67.45
8573;BME280;4324;42.012;24.872;2023-03-08T07:23:34;98388.88;;;10.81;67.21
8573;BME280;4324;42.012;24.872;2023-03-08T07:26:03;98400.38;;;10.88;67.64
8573;BME280;4324;42.012;24.872;2023-03-08T07:28:30;98397.72;;;10.88;67.65
8573;BME280;4324;42.012;24.872;2023-03-08T07:30:59;98390.16;;;10.85;67.94
8573;BME280;4324;42.012;24.872;2023-03-08T07:33:26;98394.72;;;10.91;68.01
8573;BME280;4324;42.012;24.872;2023-03-08T07:35:53;98400.03;;;10.91;67.89
8573;BME280;4324;42.012;24.872;2023-03-08T07:38:20;98393.72;;;10.92;67.89
8573;BME280;4324;42.012;24.872;2023-03-08T07:40:53;98393.50;;;10.94;67.89
8573;BME280;4324;42.012;24.872;2023-03-08T07:43:20;98378.00;;;10.90;67.80
8573;BME280;4324;42.012;24.872;2023-03-08T07:45:47;98385.66;;;11.00;67.72
8573;BME280;4324;42.012;24.872;2023-03-08T07:48:15;98389.22;;;11.07;67.52
8573;BME280;4324;42.012;24.872;2023-03-08T07:50:42;98389.88;;;11.09;67.17
8573;BME280;4324;42.012;24.872;2023-03-08T07:53:09;98384.84;;;11.14;66.98
8573;BME280;4324;42.012;24.872;2023-03-08T07:55:36;98393.22;;;11.33;66.66
8573;BME280;4324;42.012;24.872;2023-03-08T07:58:03;98370.50;;;11.24;66.64
8573;BME280;4324;42.012;24.872;2023-03-08T08:00:30;98384.31;;;11.41;66.28
8573;BME280;4324;42.012;24.872;2023-03-08T08:02:57;98366.59;;;11.41;66.49
8573;BME280;4324;42.012;24.872;2023-03-08T08:05:25;98373.53;;;11.57;66.33
8573;BME280;4324;42.012;24.872;2023-03-08T08:07:52;98377.31;;;11.69;66.11
8573;BME280;4324;42.012;24.872;2023-03-08T08:10:19;98365.88;;;11.69;66.08
8573;BME280;4324;42.012;24.872;2023-03-08T08:12:46;98373.34;;;11.80;66.06
8573;BME280;4324;42.012;24.872;2023-03-08T08:15:13;98374.28;;;11.94;65.79
8573;BME280;4324;42.012;24.872;2023-03-08T08:17:41;98338.50;;;11.83;65.73
8573;BME280;4324;42.012;24.872;2023-03-08T08:20:09;98371.63;;;12.15;65.79
8573;BME280;4324;42.012;24.872;2023-03-08T08:22:38;98372.56;;;12.29;65.43
8573;BME280;4324;42.012;24.872;2023-03-08T08:25:06;98342.56;;;12.28;65.51
8573;BME280;4324;42.012;24.872;2023-03-08T08:27:34;98358.44;;;12.50;65.09
8573;BME280;4324;42.012;24.872;2023-03-08T08:30:01;98365.47;;;12.64;64.79
8573;BME280;4324;42.012;24.872;2023-03-08T08:32:29;98338.91;;;12.64;64.76
8573;BME280;4324;42.012;24.872;2023-03-08T08:34:56;98360.31;;;12.91;64.60
8573;BME280;4324;42.012;24.872;2023-03-08T08:37:23;98350.50;;;12.91;64.67
8573;BME280;4324;42.012;24.872;2023-03-08T08:39:51;98364.31;;;13.15;64.42
8573;BME280;4324;42.012;24.872;2023-03-08T08:42:18;98370.13;;;13.25;64.16
8573;BME280;4324;42.012;24.872;2023-03-08T08:44:45;98366.88;;;13.36;63.83
8573;BME280;4324;42.012;24.872;2023-03-08T08:47:12;98371.41;;;13.49;63.69
8573;BME280;4324;42.012;24.872;2023-03-08T08:49:39;98370.41;;;13.56;62.88
8573;BME280;4324;42.012;24.872;2023-03-08T08:52:07;98376.56;;;13.64;62.07
8573;BME280;4324;42.012;24.872;2023-03-08T08:54:37;98367.78;;;13.70;61.88
8573;BME280;4324;42.012;24.872;2023-03-08T08:57:06;98369.22;;;13.79;61.71
8573;BME280;4324;42.012;24.872;2023-03-08T08:59:33;98362.50;;;13.83;61.49
8573;BME280;4324;42.012;24.872;2023-03-08T09:02:02;98359.03;;;13.96;61.45
8573;BME280;4324;42.012;24.872;2023-03-08T09:04:30;98371.34;;;14.10;61.33
8573;BME280;4324;42.012;24.872;2023-03-08T09:06:57;98366.63;;;14.19;60.40
8573;BME280;4324;42.012;24.872;2023-03-08T09:09:24;98367.84;;;14.23;58.95
8573;BME280;4324;42.012;24.872;2023-03-08T09:11:52;98358.63;;;14.25;58.76
8573;BME280;4324;42.012;24.872;2023-03-08T09:14:20;98362.53;;;14.36;58.69
8573;BME280;4324;42.012;24.872;2023-03-08T09:16:48;98358.22;;;14.42;58.69
8573;BME280;4324;42.012;24.872;2023-03-08T09:19:14;98350.63;;;14.45;58.84
8573;BME280;4324;42.012;24.872;2023-03-08T09:21:41;98348.38;;;14.49;58.80
8573;BME280;4324;42.012;24.872;2023-03-08T09:24:10;98358.00;;;14.63;58.63
8573;BME280;4324;42.012;24.872;2023-03-08T09:26:37;98356.97;;;14.71;58.61
8573;BME280;4324;42.012;24.872;2023-03-08T09:29:04;98330.75;;;14.68;58.67
8573;BME280;4324;42.012;24.872;2023-03-08T09:31:35;98351.22;;;14.87;58.28
8573;BME280;4324;42.012;24.872;2023-03-08T09:34:02;98339.28;;;14.90;58.65
8573;BME280;4324;42.012;24.872;2023-03-08T09:36:33;98341.28;;;15.08;58.02
8573;BME280;4324;42.012;24.872;2023-03-08T09:39:00;98340.88;;;15.11;57.56
8573;BME280;4324;42.012;24.872;2023-03-08T09:41:46;98341.25;;;15.21;57.50
8573;BME280;4324;42.012;24.872;2023-03-08T09:44:30;98342.44;;;15.25;57.49
8573;BME280;4324;42.012;24.872;2023-03-08T09:47:13;98335.25;;;15.32;56.94
8573;BME280;4324;42.012;24.872;2023-03-08T09:49:43;98343.00;;;15.40;56.49
8573;BME280;4324;42.012;24.872;2023-03-08T09:52:18;98341.09;;;15.47;56.30
8573;BME280;4324;42.012;24.872;2023-03-08T09:54:48;98335.75;;;15.54;55.96
8573;BME280;4324;42.012;24.872;2023-03-08T09:57:19;98339.78;;;15.63;56.23
8573;BME280;4324;42.012;24.872;2023-03-08T09:59:52;98344.84;;;15.78;56.37
8573;BME280;4324;42.012;24.872;2023-03-08T10:02:28;98329.47;;;15.80;56.03
8573;BME280;4324;42.012;24.872;2023-03-08T10:05:03;98355.28;;;16.11;55.65
8573;BME280;4324;42.012;24.872;2023-03-08T10:07:36;98348.00;;;16.25;55.73
8573;BME280;4324;42.012;24.872;2023-03-08T10:10:27;98344.81;;;16.35;55.44
8573;BME280;4324;42.012;24.872;2023-03-08T10:13:22;98336.75;;;16.41;55.12
8573;BME280;4324;42.012;24.872;2023-03-08T10:15:58;98333.34;;;16.53;55.41
8573;BME280;4324;42.012;24.872;2023-03-08T10:18:34;98337.81;;;16.59;55.50
8573;BME280;4324;42.012;24.872;2023-03-08T10:21:04;98333.69;;;16.63;53.52
8573;BME280;4324;42.012;24.872;2023-03-08T10:23:32;98335.31;;;16.64;53.54
8573;BME280;4324;42.012;24.872;2023-03-08T10:26:00;98312.66;;;16.66;53.58
8573;BME280;4324;42.012;24.872;2023-03-08T10:28:27;98328.50;;;16.86;53.60
8573;BME280;4324;42.012;24.872;2023-03-08T10:30:56;98322.41;;;16.98;52.82
8573;BME280;4324;42.012;24.872;2023-03-08T10:33:25;98325.38;;;17.08;52.72
8573;BME280;4324;42.012;24.872;2023-03-08T10:35:59;98319.59;;;17.11;52.38
8573;BME280;4324;42.012;24.872;2023-03-08T10:38:30;98273.41;;;16.85;51.76
8573;BME280;4324;42.012;24.872;2023-03-08T10:40:59;98301.63;;;17.00;51.78
8573;BME280;4324;42.012;24.872;2023-03-08T10:43:28;98313.88;;;17.07;51.46
8573;BME280;4324;42.012;24.872;2023-03-08T10:46:01;98292.84;;;17.11;51.65
8573;BME280;4324;42.012;24.872;2023-03-08T10:48:31;98296.81;;;17.20;51.61
8573;BME280;4324;42.012;24.872;2023-03-08T10:51:01;98281.75;;;17.26;51.34
8573;BME280;4324;42.012;24.872;2023-03-08T10:53:28;98292.63;;;17.42;51.04
8573;BME280;4324;42.012;24.872;2023-03-08T10:55:57;98290.56;;;17.56;50.94
8573;BME280;4324;42.012;24.872;2023-03-08T10:58:28;98283.25;;;17.63;51.09
8573;BME280;4324;42.012;24.872;2023-03-08T11:00:57;98275.78;;;17.54;50.63
8573;BME280;4324;42.012;24.872;2023-03-08T11:03:25;98270.28;;;17.37;50.74
8573;BME280;4324;42.012;24.872;2023-03-08T11:05:55;98273.19;;;17.35;50.55
8573;BME280;4324;42.012;24.872;2023-03-08T11:08:26;98265.09;;;17.24;50.61
8573;BME280;4324;42.012;24.872;2023-03-08T11:11:14;98268.00;;;17.22;50.46
8573;BME280;4324;42.012;24.872;2023-03-08T11:13:43;98261.81;;;17.10;50.58
8573;BME280;4324;42.012;24.872;2023-03-08T11:19:25;98264.47;;;17.10;50.87
8573;BME280;4324;42.012;24.872;2023-03-08T11:22:02;98270.63;;;17.10;50.85
8573;BME280;4324;42.012;24.872;2023-03-08T11:24:44;98245.59;;;17.05;50.92
8573;BME280;4324;42.012;24.872;2023-03-08T11:27:25;98256.56;;;17.15;50.58
8573;BME280;4324;42.012;24.872;2023-03-08T11:30:11;98246.56;;;17.10;49.84
8573;BME280;4324;42.012;24.872;2023-03-08T11:32:48;98253.28;;;17.13;50.08
8573;BME280;4324;42.012;24.872;2023-03-08T11:35:23;98237.00;;;17.03;50.39
8573;BME280;4324;42.012;24.872;2023-03-08T11:37:59;98226.75;;;17.00;50.16
8573;BME280;4324;42.012;24.872;2023-03-08T11:40:38;98236.44;;;17.12;50.21
8573;BME280;4324;42.012;24.872;2023-03-08T11:43:18;98238.47;;;17.17;49.83
8573;BME280;4324;42.012;24.872;2023-03-08T11:45:53;98224.16;;;17.23;49.84
8573;BME280;4324;42.012;24.872;2023-03-08T11:51:17;98229.16;;;17.31;49.57
8573;BME280;4324;42.012;24.872;2023-03-08T11:53:54;98227.00;;;17.40;49.20
8573;BME280;4324;42.012;24.872;2023-03-08T11:56:39;98212.91;;;17.33;49.11
8573;BME280;4324;42.012;24.872;2023-03-08T11:59:13;98221.19;;;17.43;49.33
8573;BME280;4324;42.012;24.872;2023-03-08T12:01:45;98220.72;;;17.46;49.26
8573;BME280;4324;42.012;24.872;2023-03-08T12:04:17;98213.03;;;17.50;49.37
8573;BME280;4324;42.012;24.872;2023-03-08T12:06:45;98208.28;;;17.52;49.27
8573;BME280;4324;42.012;24.872;2023-03-08T12:09:19;98191.63;;;17.50;49.43
8573;BME280;4324;42.012;24.872;2023-03-08T12:11:54;98204.81;;;17.63;49.56
8573;BME280;4324;42.012;24.872;2023-03-08T12:14:27;98209.25;;;17.69;49.34
8573;BME280;4324;42.012;24.872;2023-03-08T12:17:03;98198.06;;;17.72;49.06
8573;BME280;4324;42.012;24.872;2023-03-08T12:19:35;98193.94;;;17.76;48.81
8573;BME280;4324;42.012;24.872;2023-03-08T12:22:20;98197.78;;;17.80;48.91
8573;BME280;4324;42.012;24.872;2023-03-08T12:24:56;98198.34;;;17.82;48.81
8573;BME280;4324;42.012;24.872;2023-03-08T12:27:31;98180.97;;;17.73;48.99
8573;BME280;4324;42.012;24.872;2023-03-08T12:30:14;98203.94;;;17.93;48.70
8573;BME280;4324;42.012;24.872;2023-03-08T12:32:43;98196.97;;;18.03;48.72
8573;BME280;4324;42.012;24.872;2023-03-08T12:35:36;98191.69;;;18.08;48.72
8573;BME280;4324;42.012;24.872;2023-03-08T12:38:05;98168.06;;;17.94;48.82
8573;BME280;4324;42.012;24.872;2023-03-08T12:40:52;98194.00;;;18.17;48.66
8573;BME280;4324;42.012;24.872;2023-03-08T12:43:29;98189.94;;;18.26;48.52
8573;BME280;4324;42.012;24.872;2023-03-08T12:46:05;98183.78;;;18.25;48.62
8573;BME280;4324;42.012;24.872;2023-03-08T12:48:33;98160.97;;;18.11;48.20
8573;BME280;4324;42.012;24.872;2023-03-08T12:51:07;98193.53;;;18.31;47.93
8573;BME280;4324;42.012;24.872;2023-03-08T12:53:55;98161.53;;;18.13;47.98
8573;BME280;4324;42.012;24.872;2023-03-08T12:56:28;98184.13;;;18.29;47.96
8573;BME280;4324;42.012;24.872;2023-03-08T12:58:58;98185.03;;;18.34;47.88
8573;BME280;4324;42.012;24.872;2023-03-08T13:01:31;98169.53;;;18.36;47.50
8573;BME280;4324;42.012;24.872;2023-03-08T13:03:59;98165.28;;;18.52;46.87
8573;BME280;4324;42.012;24.872;2023-03-08T13:09:31;98167.22;;;18.80;46.53
8573;BME280;4324;42.012;24.872;2023-03-08T13:12:12;98171.63;;;18.86;46.72
8573;BME280;4324;42.012;24.872;2023-03-08T13:14:58;98178.63;;;18.88;46.49
8573;BME280;4324;42.012;24.872;2023-03-08T13:17:35;98154.84;;;18.79;46.57
8573;BME280;4324;42.012;24.872;2023-03-08T13:20:13;98158.50;;;18.73;46.22
8573;BME280;4324;42.012;24.872;2023-03-08T13:22:58;98157.69;;;18.73;46.33
8573;BME280;4324;42.012;24.872;2023-03-08T13:25:50;98168.66;;;18.71;46.09
8573;BME280;4324;42.012;24.872;2023-03-08T13:28:22;98169.59;;;18.65;45.33
8573;BME280;4324;42.012;24.872;2023-03-08T13:30:53;98161.19;;;18.61;45.42
8573;BME280;4324;42.012;24.872;2023-03-08T13:33:26;98165.16;;;18.59;45.27
8573;BME280;4324;42.012;24.872;2023-03-08T13:36:00;98165.97;;;18.59;44.78
8573;BME280;4324;42.012;24.872;2023-03-08T13:38:29;98154.22;;;18.49;45.04
8573;BME280;4324;42.012;24.872;2023-03-08T13:40:58;98157.50;;;18.51;45.18
8573;BME280;4324;42.012;24.872;2023-03-08T13:43:26;98165.19;;;18.47;44.63